Time;durP1;ratioP1;P1;durP2;ratioP2;P2;SDS_P1;SDS_P2;PMS_P1;PMS_P2;Temp;Humidity;BMP_temperature;BMP_pressure;BME280_temperature;BME280_humidity;BME280_pressure;Samples;Min_cycle;Max_cycle;Signal;HPM_P1;HPM_P2
2022/01/13 00:01:30;;;;;;;70.12;24.35;;;;;;;-16.45;87.62;100730.09;1703758;83;21520;-63
2022/01/13 00:03:48;;;;;;;66.47;24.45;;;;;;;-16.54;87.49;100723.70;1702899;83;21017;-65
2022/01/13 00:06:15;;;;;;;75.78;24.63;;;;;;;-16.61;87.45;100728.23;1703135;83;21020;-63
2022/01/13 00:08:42;;;;;;;71.77;22.65;;;;;;;-16.68;87.36;100711.51;1687567;82;21074;-63
2022/01/13 00:11:09;;;;;;;59.63;24.40;;;;;;;-16.66;87.41;100714.88;1693423;83;21055;-63
2022/01/13 00:14:07;;;;;;;66.37;22.87;;;;;;;-16.67;87.43;100717.17;1710968;82;21980;-62
2022/01/13 00:16:38;;;;;;;60.90;23.07;;;;;;;-16.73;87.33;100720.23;1708548;80;21501;-64
2022/01/13 00:19:05;;;;;;;61.77;22.80;;;;;;;-16.83;87.15;100713.48;1717058;82;21078;-63
2022/01/13 00:21:39;;;;;;;62.88;22.58;;;;;;;-16.83;87.22;100727.14;1705714;81;21072;-64
2022/01/13 00:24:06;;;;;;;68.07;24.47;;;;;;;-16.85;87.22;100733.84;1732837;81;21167;-65
2022/01/13 00:26:35;;;;;;;66.00;22.27;;;;;;;-16.81;87.23;100730.52;1728797;81;21095;-65
2022/01/13 00:29:02;;;;;;;71.95;23.40;;;;;;;-16.80;87.23;100726.94;1714800;80;21159;-65
2022/01/13 00:31:33;;;;;;;61.25;21.33;;;;;;;-16.82;87.20;100724.41;1697535;82;21551;-64
2022/01/13 00:34:04;;;;;;;61.88;21.97;;;;;;;-16.77;87.34;100714.84;1688883;82;21029;-62
2022/01/13 00:36:37;;;;;;;64.82;22.80;;;;;;;-16.74;87.39;100722.52;1729686;80;21930;-63
2022/01/13 00:39:06;;;;;;;59.67;22.35;;;;;;;-16.78;87.30;100719.73;1719234;81;21276;-64
2022/01/13 00:41:33;;;;;;;59.35;20.68;;;;;;;-16.89;87.06;100725.80;1700463;81;21185;-65
2022/01/13 00:44:02;;;;;;;63.25;22.15;;;;;;;-16.91;87.05;100723.75;1716652;82;21099;-64
2022/01/13 00:46:39;;;;;;;58.33;20.75;;;;;;;-16.91;87.06;100724.59;1744183;80;21020;-64
2022/01/13 00:48:58;;;;;;;57.90;20.92;;;;;;;-16.91;87.02;100720.64;1691368;82;21030;-63
2022/01/13 00:51:24;;;;;;;54.63;18.32;;;;;;;-16.89;87.09;100715.25;1688749;83;21316;-66
2022/01/13 00:53:51;;;;;;;61.20;19.87;;;;;;;-16.82;87.19;100713.01;1706541;82;21180;-62
2022/01/13 00:56:18;;;;;;;54.63;20.43;;;;;;;-16.78;87.29;100715.30;1687483;82;22329;-63
2022/01/13 00:58:46;;;;;;;55.03;20.75;;;;;;;-16.72;87.33;100718.45;1723958;80;21103;-64
2022/01/13 01:01:12;;;;;;;56.92;22.70;;;;;;;-16.76;87.24;100713.87;1707501;80;21004;-62
2022/01/13 01:03:39;;;;;;;58.87;20.00;;;;;;;-16.69;87.56;100705.88;1731549;81;21544;-63
2022/01/13 01:06:05;;;;;;;61.55;19.02;;;;;;;-16.54;88.06;100709.65;1712473;81;21211;-64
2022/01/13 01:08:33;;;;;;;61.45;21.68;;;;;;;-16.49;88.01;100703.55;1722109;81;21528;-64
2022/01/13 01:11:02;;;;;;;47.17;18.30;;;;;;;-16.46;87.97;100703.81;1697537;82;21043;-65
2022/01/13 01:13:31;;;;;;;58.33;19.12;;;;;;;-16.39;88.30;100708.52;1702628;81;21019;-62
2022/01/13 01:16:01;;;;;;;49.58;20.17;;;;;;;-16.34;88.35;100707.34;1705417;81;21174;-63
2022/01/13 01:23:35;;;;;;;52.08;18.42;;;;;;;-16.04;89.50;100709.94;1709558;82;21024;-63
2022/01/13 01:26:09;;;;;;;48.75;18.35;;;;;;;-15.91;89.96;100715.08;1705145;81;21106;-65
2022/01/13 01:28:42;;;;;;;48.15;17.55;;;;;;;-15.83;90.17;100707.91;1700770;83;21264;-62
2022/01/13 01:31:02;;;;;;;63.58;20.80;;;;;;;-15.73;90.62;100718.13;1693205;81;21161;-63
2022/01/13 01:33:28;;;;;;;49.85;18.40;;;;;;;-15.62;91.07;100708.53;1701679;82;21013;-62
2022/01/13 01:35:56;;;;;;;52.78;19.82;;;;;;;-15.50;91.49;100714.67;1690556;82;21065;-63
2022/01/13 01:38:23;;;;;;;58.28;21.52;;;;;;;-15.44;91.75;100716.83;1699343;81;21621;-61
2022/01/13 01:40:52;;;;;;;52.75;19.70;;;;;;;-15.46;91.56;100720.91;1689462;83;21018;-64
2022/01/13 01:43:19;;;;;;;50.08;18.57;;;;;;;-15.44;91.74;100712.38;1709035;81;21030;-63
2022/01/13 01:45:49;;;;;;;50.35;18.60;;;;;;;-15.35;92.13;100719.23;1705935;82;21057;-64
2022/01/13 01:48:19;;;;;;;46.68;18.20;;;;;;;-15.33;92.17;100712.84;1686606;83;21015;-64
2022/01/13 01:50:53;;;;;;;57.62;20.32;;;;;;;-15.31;92.25;100706.95;1690667;83;21069;-62
2022/01/13 01:53:13;;;;;;;47.83;16.37;;;;;;;-15.26;92.50;100705.73;1721337;81;21347;-62
2022/01/13 01:55:40;;;;;;;51.98;16.35;;;;;;;-15.23;92.62;100712.13;1728857;80;21099;-62
2022/01/13 01:58:08;;;;;;;36.83;13.22;;;;;;;-15.30;92.31;100705.98;1735772;81;21097;-63
2022/01/13 02:00:35;;;;;;;47.93;14.83;;;;;;;-15.37;91.95;100694.70;1725637;81;21568;-62
2022/01/13 02:03:03;;;;;;;43.02;13.68;;;;;;;-15.41;91.78;100698.91;1710995;81;21055;-62
2022/01/13 02:05:32;;;;;;;39.25;13.15;;;;;;;-15.42;91.61;100691.92;1703395;81;21208;-63
2022/01/13 02:07:58;;;;;;;33.83;13.58;;;;;;;-15.44;91.49;100687.73;1708703;80;21048;-64
2022/01/13 02:10:26;;;;;;;33.30;11.93;;;;;;;-15.45;91.29;100675.45;1717927;80;21485;-62
2022/01/13 02:13:02;;;;;;;41.28;15.15;;;;;;;-15.48;91.09;100678.35;1730161;81;21071;-62
2022/01/13 02:15:33;;;;;;;40.60;13.80;;;;;;;-15.43;91.23;100673.07;1729677;82;21300;-63
2022/01/13 02:18:01;;;;;;;43.87;15.32;;;;;;;-15.33;91.64;100667.03;1722976;81;21863;-62
2022/01/13 02:20:46;;;;;;;39.80;15.03;;;;;;;-15.29;91.57;100667.16;1731529;80;21082;-65
2022/01/13 02:23:13;;;;;;;49.00;14.30;;;;;;;-15.24;91.73;100661.02;1730605;80;21590;-63
2022/01/13 02:25:40;;;;;;;30.52;12.10;;;;;;;-15.08;92.38;100672.52;1733458;81;20999;-62
2022/01/13 02:28:07;;;;;;;37.48;13.70;;;;;;;-14.99;92.65;100670.13;1733462;81;21519;-62
2022/01/13 02:30:35;;;;;;;33.60;12.00;;;;;;;-14.92;92.87;100669.96;1704494;82;21114;-65
2022/01/13 02:33:01;;;;;;;36.70;13.78;;;;;;;-14.83;93.05;100664.41;1714056;81;21023;-62
2022/01/13 02:35:35;;;;;;;40.83;13.05;;;;;;;-14.81;92.97;100662.48;1733528;81;21466;-63
2022/01/13 02:38:02;;;;;;;38.78;13.90;;;;;;;-14.74;93.22;100674.70;1727440;81;21094;-62
2022/01/13 02:40:28;;;;;;;31.87;12.75;;;;;;;-14.71;93.21;100681.91;1713659;81;21183;-63
2022/01/13 02:42:56;;;;;;;32.23;13.28;;;;;;;-14.73;92.93;100666.63;1726435;80;21133;-64
2022/01/13 02:45:32;;;;;;;38.17;13.05;;;;;;;-14.71;93.06;100666.03;1722256;81;21007;-62
2022/01/13 02:48:30;;;;;;;35.30;11.45;;;;;;;-14.63;93.34;100664.05;1714208;81;21518;-63
2022/01/13 02:50:29;;;;;;;33.70;11.55;;;;;;;-14.64;93.13;100664.19;1713709;81;21554;-64
2022/01/13 02:52:57;;;;;;;30.92;12.85;;;;;;;-14.69;93.00;100658.80;1714768;81;21069;-62
2022/01/13 02:55:26;;;;;;;35.80;12.20;;;;;;;-14.72;92.87;100660.36;1718505;81;21125;-63
2022/01/13 02:57:55;;;;;;;24.65;10.88;;;;;;;-14.75;92.83;100651.34;1719942;81;21387;-62
2022/01/13 03:00:22;;;;;;;28.07;11.00;;;;;;;-14.73;93.03;100644.59;1714255;81;21059;-64
2022/01/13 03:02:49;;;;;;;29.30;11.97;;;;;;;-14.73;93.00;100649.89;1712138;82;21028;-63
2022/01/13 03:05:16;;;;;;;31.73;12.73;;;;;;;-14.74;92.97;100635.84;1708368;83;20983;-63
2022/01/13 03:07:44;;;;;;;30.17;12.82;;;;;;;-14.70;93.15;100629.31;1693722;82;21176;-64
2022/01/13 03:10:12;;;;;;;31.40;11.57;;;;;;;-14.64;93.42;100622.67;1711107;81;21084;-62
2022/01/13 03:12:43;;;;;;;27.15;11.57;;;;;;;-14.60;93.54;100623.27;1715322;81;21197;-63
2022/01/13 03:15:08;;;;;;;33.60;11.57;;;;;;;-14.64;93.34;100628.44;1708849;82;21067;-64
2022/01/13 03:17:35;;;;;;;29.72;11.35;;;;;;;-14.71;93.17;100646.17;1659949;83;21050;-63
2022/01/13 03:20:01;;;;;;;31.70;11.50;;;;;;;-14.76;93.03;100639.56;1699190;83;21040;-63
2022/01/13 03:22:27;;;;;;;28.67;11.18;;;;;;;-14.85;92.80;100649.12;1730711;82;20993;-63
2022/01/13 03:24:54;;;;;;;27.42;9.50;;;;;;;-14.96;92.56;100645.55;1725432;81;21511;-64
2022/01/13 03:27:21;;;;;;;30.50;11.30;;;;;;;-14.97;92.71;100642.55;1689188;82;22263;-63
2022/01/13 03:29:48;;;;;;;25.02;10.08;;;;;;;-14.99;92.64;100640.52;1695616;81;21062;-63
2022/01/13 03:32:16;;;;;;;24.52;11.10;;;;;;;-14.99;92.68;100625.95;1699222;82;21352;-63
2022/01/13 03:34:43;;;;;;;29.10;9.90;;;;;;;-15.00;92.71;100626.94;1687169;83;21015;-64
2022/01/13 03:37:09;;;;;;;21.85;9.13;;;;;;;-14.99;92.84;100625.95;1720153;81;21006;-64
2022/01/13 03:39:36;;;;;;;27.67;11.12;;;;;;;-15.07;92.48;100637.66;1726414;81;20994;-64
2022/01/13 03:42:03;;;;;;;26.27;10.80;;;;;;;-15.13;92.31;100626.25;1716546;82;21607;-64
2022/01/13 03:44:30;;;;;;;24.25;10.23;;;;;;;-15.19;92.24;100639.02;1696341;83;21150;-65
2022/01/13 03:47:01;;;;;;;32.28;10.18;;;;;;;-15.22;92.11;100639.27;1698120;83;21116;-63
2022/01/13 03:49:29;;;;;;;23.12;8.35;;;;;;;-15.23;92.10;100627.48;1713110;82;21075;-63
2022/01/13 03:52:04;;;;;;;23.55;8.63;;;;;;;-15.25;92.10;100627.61;1681423;83;21001;-64
2022/01/13 03:54:39;;;;;;;23.70;8.63;;;;;;;-15.27;92.11;100628.21;1676027;83;21071;-63
2022/01/13 03:57:53;;;;;;;25.00;9.38;;;;;;;-15.27;92.12;100633.50;1695149;83;21616;-62
2022/01/13 04:01:04;;;;;;;19.77;9.00;;;;;;;-15.25;92.16;100643.48;1707531;82;21098;-63
2022/01/13 04:03:30;;;;;;;24.37;10.05;;;;;;;-15.31;91.92;100637.34;1640302;83;21114;-64
2022/01/13 04:06:17;;;;;;;30.92;9.18;;;;;;;-15.35;91.87;100637.25;1712359;81;21022;-63
2022/01/13 04:08:48;;;;;;;24.72;10.10;;;;;;;-15.31;92.24;100647.45;1724350;80;21054;-63
2022/01/13 04:11:19;;;;;;;25.95;10.90;;;;;;;-15.32;92.18;100651.55;1670773;83;21987;-64
2022/01/13 04:13:50;;;;;;;35.00;10.48;;;;;;;-15.35;92.26;100648.64;1695573;82;20997;-61
2022/01/13 04:16:15;;;;;;;29.15;11.28;;;;;;;-15.31;92.47;100649.24;1712878;81;21034;-63
2022/01/13 04:18:41;;;;;;;29.37;11.57;;;;;;;-15.32;92.36;100648.42;1721892;82;21051;-63
2022/01/13 04:21:08;;;;;;;27.48;9.98;;;;;;;-15.29;92.55;100655.26;1692752;82;21150;-63
2022/01/13 04:23:34;;;;;;;26.75;11.48;;;;;;;-15.30;92.52;100656.23;1713393;81;21186;-62
2022/01/13 04:26:05;;;;;;;29.72;12.50;;;;;;;-15.33;92.42;100655.13;1691534;83;21572;-63
2022/01/13 04:28:30;;;;;;;30.02;11.90;;;;;;;-15.36;92.42;100644.80;1698926;82;21083;-63
2022/01/13 04:31:02;;;;;;;28.40;11.10;;;;;;;-15.35;92.51;100631.96;1713235;81;21027;-63
2022/01/13 04:33:34;;;;;;;28.55;10.65;;;;;;;-15.30;92.75;100632.43;1711494;82;21039;-62
2022/01/13 04:36:06;;;;;;;27.45;9.88;;;;;;;-15.32;92.60;100624.63;1709931;82;21508;-64
2022/01/13 04:38:34;;;;;;;27.70;10.25;;;;;;;-15.37;92.38;100628.12;1708508;81;21550;-64
2022/01/13 04:41:04;;;;;;;28.73;9.73;;;;;;;-15.44;92.10;100620.31;1701249;82;21044;-64
2022/01/13 04:43:31;;;;;;;24.00;10.70;;;;;;;-15.49;91.92;100616.72;1713767;81;21014;-65
2022/01/13 04:45:57;;;;;;;23.83;8.55;;;;;;;-15.58;91.54;100612.14;1717396;80;21540;-64
2022/01/13 04:48:24;;;;;;;20.17;8.78;;;;;;;-15.62;91.30;100606.77;1715410;83;21139;-63
2022/01/13 04:50:50;;;;;;;23.95;8.73;;;;;;;-15.68;91.07;100594.86;1726654;81;21016;-62
2022/01/13 04:53:18;;;;;;;25.82;10.00;;;;;;;-15.72;90.86;100586.80;1719696;81;21557;-62
2022/01/13 04:55:52;;;;;;;33.75;10.68;;;;;;;-15.67;91.18;100585.48;1727231;81;21033;-63
2022/01/13 04:58:21;;;;;;;35.85;13.35;;;;;;;-15.56;91.63;100585.11;1726616;80;21664;-63
2022/01/13 05:00:47;;;;;;;55.95;18.35;;;;;;;-15.48;91.89;100580.05;1728164;82;21209;-62
2022/01/13 05:03:15;;;;;;;54.90;20.02;;;;;;;-15.36;92.27;100587.47;1728583;81;21031;-63
2022/01/13 05:05:41;;;;;;;53.23;18.57;;;;;;;-15.27;92.49;100584.57;1693600;82;21063;-63
2022/01/13 05:08:09;;;;;;;52.85;18.70;;;;;;;-15.20;92.66;100589.73;1725533;81;21096;-62
2022/01/13 05:10:38;;;;;;;103.80;28.90;;;;;;;-15.11;92.91;100588.62;1728663;80;21096;-63
2022/01/13 05:13:08;;;;;;;97.85;27.45;;;;;;;-15.06;92.99;100583.28;1702517;82;21200;-61
2022/01/13 05:15:35;;;;;;;115.17;30.30;;;;;;;-15.05;92.81;100581.02;1715187;81;21033;-64
2022/01/13 05:18:14;;;;;;;66.50;20.62;;;;;;;-15.07;92.62;100575.47;1697843;83;21080;-64
2022/01/13 05:20:50;;;;;;;46.60;15.58;;;;;;;-15.14;92.34;100569.85;1679793;84;21000;-63
2022/01/13 05:23:16;;;;;;;34.55;13.35;;;;;;;-15.24;92.04;100552.58;1710835;81;21720;-65
2022/01/13 05:25:42;;;;;;;49.85;16.25;;;;;;;-15.23;92.29;100541.52;1696693;82;21105;-64
2022/01/13 05:28:11;;;;;;;51.20;18.92;;;;;;;-15.26;92.29;100541.75;1708756;81;21151;-64
2022/01/13 05:30:38;;;;;;;45.12;15.63;;;;;;;-15.24;92.38;100540.67;1688054;83;21047;-64
2022/01/13 05:33:07;;;;;;;45.15;16.62;;;;;;;-15.16;92.69;100532.09;1689866;83;21595;-61
2022/01/13 05:35:36;;;;;;;38.15;15.55;;;;;;;-15.09;92.84;100533.75;1688796;83;21084;-61
2022/01/13 05:38:05;;;;;;;39.30;16.20;;;;;;;-15.08;92.66;100523.54;1718758;82;21145;-63
2022/01/13 05:40:31;;;;;;;38.67;16.62;;;;;;;-15.08;92.67;100527.51;1706785;83;21005;-62
2022/01/13 05:42:58;;;;;;;56.50;19.55;;;;;;;-15.02;93.04;100528.78;1699478;82;21581;-62
2022/01/13 05:45:29;;;;;;;36.60;15.50;;;;;;;-14.98;93.16;100525.78;1722883;82;21123;-63
2022/01/13 05:47:56;;;;;;;47.03;18.80;;;;;;;-14.93;93.33;100522.27;1719153;81;21059;-63
2022/01/13 05:50:22;;;;;;;39.48;17.12;;;;;;;-14.89;93.48;100520.17;1724118;81;21273;-63
2022/01/13 05:52:49;;;;;;;43.52;18.75;;;;;;;-14.82;93.63;100521.85;1692912;82;21483;-62
2022/01/13 05:55:17;;;;;;;52.03;18.90;;;;;;;-14.80;93.61;100523.86;1697179;83;21044;-62
2022/01/13 05:57:44;;;;;;;48.15;19.32;;;;;;;-14.74;93.77;100522.01;1722234;82;21022;-63
2022/01/13 06:00:13;;;;;;;38.00;16.02;;;;;;;-14.72;93.77;100523.20;1726827;81;21507;-61
2022/01/13 06:02:41;;;;;;;37.00;14.78;;;;;;;-14.70;93.85;100540.62;1691923;83;21109;-62
2022/01/13 06:05:09;;;;;;;47.53;16.35;;;;;;;-14.67;93.99;100541.67;1686699;83;21610;-65
2022/01/13 06:07:37;;;;;;;51.30;19.23;;;;;;;-14.64;94.04;100542.39;1714134;81;21033;-63
2022/01/13 06:10:07;;;;;;;48.78;18.90;;;;;;;-14.65;93.93;100539.41;1716592;82;21012;-65
2022/01/13 06:12:37;;;;;;;45.70;17.67;;;;;;;-14.61;93.93;100530.22;1716120;81;21033;-61
2022/01/13 06:15:10;;;;;;;37.75;14.45;;;;;;;-14.60;93.82;100531.91;1710258;82;21042;-63
2022/01/13 06:17:39;;;;;;;50.00;19.32;;;;;;;-14.60;93.82;100539.35;1716983;81;21553;-64
2022/01/13 06:20:09;;;;;;;50.30;19.12;;;;;;;-14.61;93.75;100535.04;1723315;81;21475;-65
2022/01/13 06:22:38;;;;;;;46.95;18.20;;;;;;;-14.55;93.94;100522.59;1709467;83;21178;-65
2022/01/13 06:25:08;;;;;;;46.30;18.37;;;;;;;-14.48;94.02;100530.84;1720193;81;21064;-63
2022/01/13 06:27:36;;;;;;;60.28;19.95;;;;;;;-14.43;94.04;100533.95;1720179;82;21127;-62
2022/01/13 06:30:05;;;;;;;54.15;20.30;;;;;;;-14.40;94.07;100530.21;1732486;81;21549;-63
2022/01/13 06:32:33;;;;;;;59.05;23.27;;;;;;;-14.37;94.07;100526.44;1694175;81;21189;-62
2022/01/13 06:34:59;;;;;;;50.12;22.05;;;;;;;-14.33;94.08;100526.55;1712847;81;21044;-64
2022/01/13 06:37:27;;;;;;;53.95;19.02;;;;;;;-14.28;94.09;100517.72;1731643;81;21490;-64
2022/01/13 06:39:53;;;;;;;51.30;20.17;;;;;;;-14.22;94.25;100513.68;1738149;81;21192;-64
2022/01/13 06:42:20;;;;;;;49.90;20.10;;;;;;;-14.18;94.17;100505.83;1717126;82;21172;-64
2022/01/13 06:44:46;;;;;;;49.95;20.60;;;;;;;-14.12;94.31;100505.80;1730747;81;20993;-62
2022/01/13 06:47:12;;;;;;;56.05;21.15;;;;;;;-14.05;94.47;100506.91;1732152;81;21545;-62
2022/01/13 06:49:39;;;;;;;55.38;22.05;;;;;;;-13.98;94.71;100492.64;1722623;81;21041;-64
2022/01/13 06:52:07;;;;;;;61.13;23.12;;;;;;;-13.88;95.00;100478.08;1732188;81;21147;-63
2022/01/13 06:54:34;;;;;;;77.15;26.68;;;;;;;-13.79;95.09;100477.27;1719692;80;21000;-63
2022/01/13 06:57:01;;;;;;;68.05;24.87;;;;;;;-13.71;95.18;100464.64;1736212;81;21011;-65
2022/01/13 06:59:28;;;;;;;66.70;24.37;;;;;;;-13.62;95.26;100464.31;1706380;81;21613;-63
2022/01/13 07:01:56;;;;;;;45.63;21.97;;;;;;;-13.55;95.41;100459.30;1715559;81;21026;-64
2022/01/13 07:04:30;;;;;;;60.78;23.98;;;;;;;-13.46;95.54;100456.61;1720593;80;21163;-66
2022/01/13 07:07:00;;;;;;;53.83;22.10;;;;;;;-13.39;95.64;100464.03;1733382;80;21002;-63
2022/01/13 07:09:30;;;;;;;66.75;26.05;;;;;;;-13.30;95.81;100453.89;1712412;81;21066;-65
2022/01/13 07:11:56;;;;;;;53.75;21.45;;;;;;;-13.20;96.02;100460.51;1721719;82;21008;-65
2022/01/13 07:14:22;;;;;;;70.75;25.40;;;;;;;-13.09;96.21;100460.86;1684802;82;21046;-64
2022/01/13 07:16:50;;;;;;;72.95;28.17;;;;;;;-13.02;96.25;100458.00;1714396;81;21168;-64
2022/01/13 07:19:18;;;;;;;70.03;26.77;;;;;;;-12.92;96.52;100453.14;1719162;81;21191;-64
2022/01/13 07:21:45;;;;;;;66.75;27.42;;;;;;;-12.79;96.85;100427.63;1699233;82;21075;-65
2022/01/13 07:24:11;;;;;;;62.83;26.62;;;;;;;-12.65;97.14;100431.61;1709508;81;21517;-63
2022/01/13 07:26:39;;;;;;;61.77;25.68;;;;;;;-12.53;97.25;100421.64;1713909;81;21131;-65
2022/01/13 07:29:07;;;;;;;60.08;25.12;;;;;;;-12.44;97.37;100414.62;1697892;81;21675;-63
2022/01/13 07:31:36;;;;;;;74.25;28.83;;;;;;;-12.36;97.42;100404.94;1716607;81;21486;-63
2022/01/13 07:34:02;;;;;;;60.70;24.98;;;;;;;-12.25;97.59;100403.07;1720958;81;20991;-63
2022/01/13 07:36:31;;;;;;;66.53;27.82;;;;;;;-12.16;97.71;100398.17;1695614;81;21049;-64
2022/01/13 07:38:59;;;;;;;60.30;26.10;;;;;;;-12.06;97.83;100397.27;1679101;83;21015;-65
2022/01/13 07:41:25;;;;;;;63.92;26.82;;;;;;;-11.98;97.92;100391.55;1701085;82;21101;-64
2022/01/13 07:43:54;;;;;;;75.87;30.68;;;;;;;-11.89;98.03;100386.30;1720159;82;21080;-64
2022/01/13 07:46:22;;;;;;;67.45;28.90;;;;;;;-11.80;98.17;100393.36;1709677;81;21021;-64
2022/01/13 07:48:48;;;;;;;63.73;27.32;;;;;;;-11.73;98.26;100379.81;1700096;83;21930;-62
2022/01/13 07:51:14;;;;;;;73.02;29.07;;;;;;;-11.63;98.43;100361.59;1713070;82;21077;-64
2022/01/13 07:53:42;;;;;;;80.70;30.05;;;;;;;-11.55;98.57;100347.53;1714609;81;21144;-62
2022/01/13 07:56:08;;;;;;;66.07;28.38;;;;;;;-11.46;98.75;100353.76;1713787;81;22552;-63
2022/01/13 07:58:35;;;;;;;71.60;29.63;;;;;;;-11.37;98.90;100345.67;1684702;81;21059;-63
2022/01/13 08:01:05;;;;;;;79.75;29.82;;;;;;;-11.29;99.03;100352.05;1694951;82;21053;-63
2022/01/13 08:03:33;;;;;;;68.22;28.38;;;;;;;-11.20;99.20;100355.58;1703424;81;21658;-63
2022/01/13 08:06:01;;;;;;;75.92;28.47;;;;;;;-11.12;99.35;100351.64;1710987;82;21165;-63
2022/01/13 08:08:27;;;;;;;72.47;29.48;;;;;;;-11.03;99.48;100349.38;1696890;81;21552;-62
2022/01/13 08:10:56;;;;;;;68.60;29.60;;;;;;;-10.95;99.67;100352.58;1698164;82;21121;-62
2022/01/13 08:13:22;;;;;;;71.10;31.20;;;;;;;-10.86;99.78;100353.46;1706843;81;21078;-63
2022/01/13 08:15:54;;;;;;;67.25;29.50;;;;;;;-10.77;99.89;100354.34;1709959;81;21640;-63
2022/01/13 08:21:07;;;;;;;64.82;28.62;;;;;;;-10.60;100.00;100340.60;1707794;82;21564;-62
2022/01/13 08:23:34;;;;;;;71.85;26.55;;;;;;;-10.51;100.00;100359.61;1719507;81;21053;-64
2022/01/13 08:26:02;;;;;;;74.20;31.00;;;;;;;-10.42;100.00;100360.97;1684721;81;21377;-62
2022/01/13 08:28:30;;;;;;;66.37;26.17;;;;;;;-10.35;100.00;100360.64;1721395;81;21571;-64
2022/01/13 08:30:57;;;;;;;65.32;25.88;;;;;;;-10.27;100.00;100355.84;1729074;81;21079;-64
2022/01/13 08:33:26;;;;;;;69.47;27.15;;;;;;;-10.18;100.00;100354.02;1717026;81;21017;-62
2022/01/13 08:35:53;;;;;;;62.13;28.20;;;;;;;-10.11;100.00;100337.70;1713474;81;21070;-64
2022/01/13 08:38:19;;;;;;;64.12;27.27;;;;;;;-10.03;100.00;100324.91;1713199;81;21171;-62
2022/01/13 08:40:47;;;;;;;64.55;27.82;;;;;;;-9.95;100.00;100318.73;1720146;81;21644;-63
2022/01/13 08:43:17;;;;;;;74.37;29.95;;;;;;;-9.87;100.00;100324.07;1711430;80;21306;-64
2022/01/13 08:45:44;;;;;;;71.42;29.27;;;;;;;-9.78;100.00;100323.09;1728635;80;21589;-64
2022/01/13 08:48:11;;;;;;;77.12;31.62;;;;;;;-9.68;100.00;100309.58;1705376;81;21059;-65
2022/01/13 08:50:38;;;;;;;79.47;31.87;;;;;;;-9.57;100.00;100310.25;1708593;82;21026;-63
2022/01/13 08:53:05;;;;;;;68.50;30.77;;;;;;;-9.48;100.00;100307.89;1713372;81;21089;-63
2022/01/13 08:55:34;;;;;;;66.92;26.85;;;;;;;-9.37;100.00;100305.38;1705803;83;21500;-65
2022/01/13 08:58:00;;;;;;;61.18;27.40;;;;;;;-9.30;100.00;100305.54;1718102;80;21167;-64
2022/01/13 09:00:27;;;;;;;69.58;29.65;;;;;;;-9.23;100.00;100301.69;1713539;81;21025;-65
2022/01/13 09:02:58;;;;;;;60.55;27.50;;;;;;;-9.19;100.00;100296.31;1710537;80;21036;-64
2022/01/13 09:05:24;;;;;;;66.87;27.73;;;;;;;-9.16;100.00;100284.80;1717215;81;21115;-63
2022/01/13 09:07:51;;;;;;;68.50;28.27;;;;;;;-9.09;100.00;100272.11;1710488;81;21805;-64
2022/01/13 09:10:17;;;;;;;58.20;27.25;;;;;;;-9.03;100.00;100274.09;1692363;82;21049;-64
2022/01/13 09:12:45;;;;;;;59.23;25.55;;;;;;;-8.96;100.00;100276.41;1711097;83;21146;-63
2022/01/13 09:18:07;;;;;;;58.15;26.77;;;;;;;-8.81;100.00;100256.47;1697159;82;21148;-64
2022/01/13 09:20:28;;;;;;;61.70;28.60;;;;;;;-8.74;100.00;100253.09;1676839;82;21079;-66
2022/01/13 09:22:56;;;;;;;64.70;28.07;;;;;;;-8.68;100.00;100260.41;1709600;81;21015;-65
2022/01/13 09:25:25;;;;;;;61.53;28.55;;;;;;;-8.62;100.00;100263.73;1681897;83;21499;-64
2022/01/13 09:27:52;;;;;;;65.75;27.75;;;;;;;-8.55;100.00;100264.64;1715238;83;21522;-64
2022/01/13 09:30:20;;;;;;;61.70;27.75;;;;;;;-8.48;100.00;100263.96;1695139;83;21187;-63
2022/01/13 09:32:47;;;;;;;64.87;28.45;;;;;;;-8.39;100.00;100252.72;1705498;81;22360;-63
2022/01/13 09:35:14;;;;;;;61.65;27.82;;;;;;;-8.33;100.00;100237.29;1699418;80;21614;-64
2022/01/13 09:37:40;;;;;;;59.75;26.80;;;;;;;-8.31;100.00;100221.38;1683917;82;21215;-65
2022/01/13 09:40:10;;;;;;;57.98;25.43;;;;;;;-8.29;100.00;100208.35;1676512;83;21145;-65
2022/01/13 09:42:40;;;;;;;58.50;26.37;;;;;;;-8.28;100.00;100196.63;1698372;82;21549;-64
2022/01/13 09:45:07;;;;;;;64.22;27.55;;;;;;;-8.23;100.00;100184.39;1709080;81;21151;-63
2022/01/13 09:47:35;;;;;;;51.83;26.87;;;;;;;-8.14;100.00;100183.83;1714621;81;21062;-64
2022/01/13 09:50:04;;;;;;;63.63;26.95;;;;;;;-8.07;100.00;100179.92;1738630;81;21021;-65
2022/01/13 09:52:33;;;;;;;57.85;27.02;;;;;;;-8.01;100.00;100175.18;1732033;81;21106;-62
2022/01/13 09:54:59;;;;;;;59.95;28.27;;;;;;;-7.93;100.00;100175.59;1712734;81;21710;-63
2022/01/13 09:57:25;;;;;;;53.05;25.10;;;;;;;-7.85;100.00;100171.53;1700644;81;21310;-65
2022/01/13 09:59:54;;;;;;;58.30;28.85;;;;;;;-7.75;100.00;100170.42;1698747;81;21528;-66
2022/01/13 10:02:20;;;;;;;67.35;31.20;;;;;;;-7.67;100.00;100166.31;1701709;81;21507;-63
2022/01/13 10:04:50;;;;;;;60.03;29.00;;;;;;;-7.60;100.00;100167.25;1704561;81;21031;-64
2022/01/13 10:07:41;;;;;;;59.55;27.05;;;;;;;-7.55;100.00;100158.66;1697616;82;21051;-63
2022/01/13 10:10:14;;;;;;;69.80;31.93;;;;;;;-7.49;100.00;100154.42;1723417;80;21161;-67
2022/01/13 10:12:42;;;;;;;64.97;30.50;;;;;;;-7.45;100.00;100139.63;1721878;81;21067;-63
2022/01/13 10:18:03;;;;;;;64.97;28.52;;;;;;;-7.31;100.00;100121.05;1731922;81;21050;-65
2022/01/13 10:20:31;;;;;;;67.25;30.82;;;;;;;-7.24;100.00;100107.23;1705913;81;21031;-64
2022/01/13 10:23:11;;;;;;;70.95;31.25;;;;;;;-7.19;100.00;100095.95;1729035;79;21544;-64
2022/01/13 10:25:40;;;;;;;66.77;30.55;;;;;;;-7.15;100.00;100086.53;1724835;80;22882;-64
2022/01/13 10:28:21;;;;;;;65.97;29.67;;;;;;;-7.11;100.00;100081.94;1736772;80;21089;-66
2022/01/13 10:30:52;;;;;;;53.28;25.17;;;;;;;-7.05;100.00;100082.20;1723809;81;21118;-64
2022/01/13 10:33:26;;;;;;;69.53;31.20;;;;;;;-7.00;100.00;100083.80;1692073;81;21619;-65
2022/01/13 10:35:57;;;;;;;72.27;30.75;;;;;;;-6.97;100.00;100080.73;1687881;83;21667;-63
2022/01/13 10:38:24;;;;;;;61.77;28.73;;;;;;;-6.90;100.00;100072.77;1707041;81;21115;-63
2022/01/13 10:40:53;;;;;;;70.12;31.00;;;;;;;-6.84;100.00;100063.45;1698825;82;21035;-66
2022/01/13 10:43:23;;;;;;;61.68;31.20;;;;;;;-6.80;100.00;100059.88;1726691;80;21521;-64
2022/01/13 10:45:53;;;;;;;71.75;32.13;;;;;;;-6.74;100.00;100063.66;1717003;80;21731;-65
2022/01/13 10:48:25;;;;;;;64.22;31.40;;;;;;;-6.67;100.00;100063.17;1723950;81;21703;-64
2022/01/13 10:51:06;;;;;;;63.60;32.73;;;;;;;-6.59;100.00;100062.23;1728650;81;21008;-64
2022/01/13 10:53:42;;;;;;;70.65;31.85;;;;;;;-6.50;100.00;100058.38;1725743;81;21021;-64
2022/01/13 10:56:18;;;;;;;70.15;32.85;;;;;;;-6.44;100.00;100062.14;1713318;82;21046;-64
2022/01/13 10:58:52;;;;;;;70.50;31.95;;;;;;;-6.39;100.00;100058.38;1718189;80;21059;-65
2022/01/13 11:01:19;;;;;;;71.42;31.68;;;;;;;-6.35;100.00;100055.59;1700015;81;21123;-65
2022/01/13 11:03:46;;;;;;;71.12;33.50;;;;;;;-6.30;100.00;100048.83;1709235;82;21540;-63
2022/01/13 11:06:13;;;;;;;69.90;34.83;;;;;;;-6.27;100.00;100035.86;1699125;81;21064;-64
2022/01/13 11:08:45;;;;;;;71.15;34.23;;;;;;;-6.25;100.00;100016.37;1723869;81;21066;-63
2022/01/13 11:11:21;;;;;;;69.40;31.37;;;;;;;-6.19;100.00;100015.27;1706483;82;21054;-63
2022/01/13 11:14:00;;;;;;;68.75;33.20;;;;;;;-6.14;100.00;100016.86;1728298;80;21095;-64
2022/01/13 11:16:29;;;;;;;71.57;34.95;;;;;;;-6.09;100.00;100010.89;1712542;81;21149;-66
2022/01/13 11:18:55;;;;;;;72.12;34.70;;;;;;;-6.06;100.00;99994.39;1715993;81;21141;-65
2022/01/13 11:21:21;;;;;;;66.65;31.35;;;;;;;-6.04;100.00;99980.23;1708796;80;21086;-66
2022/01/13 11:23:50;;;;;;;67.75;33.45;;;;;;;-6.01;100.00;99971.77;1731115;80;21031;-63